sensor_id;sensor_type;location;lat;lon;timestamp;pressure;altitude;pressure_sealevel;temperature;humidity
37368;BME280;23240;43.210;27.910;2023-07-20T00:00:24;100439.94;;;25.26;100.00
37368;BME280;23240;43.210;27.910;2023-07-20T00:02:50;100434.91;;;25.23;100.00
37368;BME280;23240;43.210;27.910;2023-07-20T00:05:15;100424.78;;;25.24;100.00
37368;BME280;23240;43.210;27.910;2023-07-20T00:07:43;100419.16;;;25.19;100.00
37368;BME280;23240;43.210;27.910;2023-07-20T00:10:08;100417.03;;;25.21;100.00
37368;BME280;23240;43.210;27.910;2023-07-20T00:12:34;100414.97;;;25.16;100.00
37368;BME280;23240;43.210;27.910;2023-07-20T00:14:59;100416.66;;;25.17;100.00
37368;BME280;23240;43.210;27.910;2023-07-20T00:17:25;100414.16;;;25.16;100.00
37368;BME280;23240;43.210;27.910;2023-07-20T00:19:50;100420.69;;;25.15;100.00
37368;BME280;23240;43.210;27.910;2023-07-20T00:22:15;100420.06;;;25.12;100.00
37368;BME280;23240;43.210;27.910;2023-07-20T00:24:40;100413.53;;;25.13;100.00
37368;BME280;23240;43.210;27.910;2023-07-20T00:27:06;100424.72;;;25.12;100.00
37368;BME280;23240;43.210;27.910;2023-07-20T00:29:31;100428.91;;;25.15;100.00
37368;BME280;23240;43.210;27.910;2023-07-20T00:31:56;100424.13;;;25.10;100.00
37368;BME280;23240;43.210;27.910;2023-07-20T00:34:23;100430.44;;;25.10;100.00
37368;BME280;23240;43.210;27.910;2023-07-20T00:36:48;100435.75;;;25.05;100.00
37368;BME280;23240;43.210;27.910;2023-07-20T00:39:14;100432.38;;;25.03;100.00
37368;BME280;23240;43.210;27.910;2023-07-20T00:41:39;100428.78;;;25.03;100.00
37368;BME280;23240;43.210;27.910;2023-07-20T00:44:05;100420.19;;;24.99;100.00
37368;BME280;23240;43.210;27.910;2023-07-20T00:46:30;100413.88;;;24.99;100.00
37368;BME280;23240;43.210;27.910;2023-07-20T00:48:57;100412.66;;;24.95;100.00
37368;BME280;23240;43.210;27.910;2023-07-20T00:51:23;100400.25;;;24.92;100.00
37368;BME280;23240;43.210;27.910;2023-07-20T00:53:49;100410.63;;;24.90;100.00
37368;BME280;23240;43.210;27.910;2023-07-20T00:56:15;100417.38;;;24.87;100.00
37368;BME280;23240;43.210;27.910;2023-07-20T00:58:40;100426.28;;;24.83;100.00
37368;BME280;23240;43.210;27.910;2023-07-20T01:01:06;100419.28;;;24.87;100.00
37368;BME280;23240;43.210;27.910;2023-07-20T01:03:31;100418.66;;;24.85;100.00
37368;BME280;23240;43.210;27.910;2023-07-20T01:08:27;100410.66;;;24.83;100.00
37368;BME280;23240;43.210;27.910;2023-07-20T01:10:58;100416.97;;;24.84;100.00
37368;BME280;23240;43.210;27.910;2023-07-20T01:13:24;100411.16;;;24.80;100.00
37368;BME280;23240;43.210;27.910;2023-07-20T01:15:53;100416.81;;;24.79;100.00
37368;BME280;23240;43.210;27.910;2023-07-20T01:18:18;100410.75;;;24.77;100.00
37368;BME280;23240;43.210;27.910;2023-07-20T01:20:44;100407.38;;;24.75;100.00
37368;BME280;23240;43.210;27.910;2023-07-20T01:33:28;100428.84;;;24.78;100.00
37368;BME280;23240;43.210;27.910;2023-07-20T01:35:57;100438.06;;;24.83;100.00
37368;BME280;23240;43.210;27.910;2023-07-20T01:38:23;100443.78;;;24.82;100.00
37368;BME280;23240;43.210;27.910;2023-07-20T01:40:49;100453.78;;;24.70;100.00
37368;BME280;23240;43.210;27.910;2023-07-20T01:43:15;100458.09;;;24.59;100.00
37368;BME280;23240;43.210;27.910;2023-07-20T01:45:41;100477.16;;;24.47;100.00
37368;BME280;23240;43.210;27.910;2023-07-20T01:48:06;100510.75;;;24.29;100.00
37368;BME280;23240;43.210;27.910;2023-07-20T01:50:32;100522.88;;;24.08;100.00
37368;BME280;23240;43.210;27.910;2023-07-20T01:52:59;100537.91;;;23.86;100.00
37368;BME280;23240;43.210;27.910;2023-07-20T01:55:24;100545.78;;;23.56;100.00
37368;BME280;23240;43.210;27.910;2023-07-20T01:57:50;100529.38;;;23.49;100.00
37368;BME280;23240;43.210;27.910;2023-07-20T02:00:15;100527.75;;;23.35;100.00
37368;BME280;23240;43.210;27.910;2023-07-20T02:02:40;100531.38;;;23.22;100.00
37368;BME280;23240;43.210;27.910;2023-07-20T02:05:06;100524.41;;;23.20;100.00
37368;BME280;23240;43.210;27.910;2023-07-20T02:07:31;100534.09;;;23.16;100.00
37368;BME280;23240;43.210;27.910;2023-07-20T02:09:57;100538.13;;;23.06;100.00
37368;BME280;23240;43.210;27.910;2023-07-20T02:12:22;100500.53;;;23.02;100.00
37368;BME280;23240;43.210;27.910;2023-07-20T02:14:47;100516.47;;;22.98;100.00
37368;BME280;23240;43.210;27.910;2023-07-20T02:17:13;100511.03;;;22.98;100.00
37368;BME280;23240;43.210;27.910;2023-07-20T02:19:38;100486.22;;;23.06;100.00
37368;BME280;23240;43.210;27.910;2023-07-20T02:22:03;100473.78;;;23.11;100.00
37368;BME280;23240;43.210;27.910;2023-07-20T02:24:29;100472.50;;;23.20;100.00
37368;BME280;23240;43.210;27.910;2023-07-20T02:26:54;100456.75;;;23.22;100.00
37368;BME280;23240;43.210;27.910;2023-07-20T02:29:19;100462.38;;;23.33;100.00
37368;BME280;23240;43.210;27.910;2023-07-20T02:31:45;100462.16;;;23.42;100.00
37368;BME280;23240;43.210;27.910;2023-07-20T02:34:10;100454.31;;;23.52;100.00
37368;BME280;23240;43.210;27.910;2023-07-20T02:36:35;100450.53;;;23.59;100.00
37368;BME280;23240;43.210;27.910;2023-07-20T02:39:01;100442.53;;;23.65;100.00
37368;BME280;23240;43.210;27.910;2023-07-20T02:41:29;100433.44;;;23.71;100.00
37368;BME280;23240;43.210;27.910;2023-07-20T02:43:54;100435.53;;;23.69;100.00
37368;BME280;23240;43.210;27.910;2023-07-20T02:46:21;100437.19;;;23.76;100.00
37368;BME280;23240;43.210;27.910;2023-07-20T02:48:47;100432.56;;;23.77;100.00
37368;BME280;23240;43.210;27.910;2023-07-20T02:51:12;100423.75;;;23.75;100.00
37368;BME280;23240;43.210;27.910;2023-07-20T02:53:37;100419.72;;;23.77;100.00
37368;BME280;23240;43.210;27.910;2023-07-20T02:56:03;100420.19;;;23.74;100.00
37368;BME280;23240;43.210;27.910;2023-07-20T02:58:28;100408.00;;;23.70;100.00
37368;BME280;23240;43.210;27.910;2023-07-20T03:00:54;100405.09;;;23.65;100.00
37368;BME280;23240;43.210;27.910;2023-07-20T03:03:19;100408.22;;;23.62;100.00
37368;BME280;23240;43.210;27.910;2023-07-20T03:05:44;100408.44;;;23.67;100.00
37368;BME280;23240;43.210;27.910;2023-07-20T03:08:10;100401.47;;;23.71;100.00
37368;BME280;23240;43.210;27.910;2023-07-20T03:10:41;100408.38;;;23.74;100.00
37368;BME280;23240;43.210;27.910;2023-07-20T03:13:07;100393.50;;;23.70;100.00
37368;BME280;23240;43.210;27.910;2023-07-20T03:15:32;100380.66;;;23.70;100.00
37368;BME280;23240;43.210;27.910;2023-07-20T03:17:57;100366.75;;;23.72;100.00
37368;BME280;23240;43.210;27.910;2023-07-20T03:20:23;100361.88;;;23.74;100.00
37368;BME280;23240;43.210;27.910;2023-07-20T03:22:49;100352.81;;;23.80;100.00
37368;BME280;23240;43.210;27.910;2023-07-20T03:25:14;100348.59;;;23.84;100.00
37368;BME280;23240;43.210;27.910;2023-07-20T03:27:39;100343.28;;;23.89;100.00
37368;BME280;23240;43.210;27.910;2023-07-20T03:30:05;100325.16;;;23.95;100.00
37368;BME280;23240;43.210;27.910;2023-07-20T03:32:32;100325.72;;;24.03;100.00
37368;BME280;23240;43.210;27.910;2023-07-20T03:34:57;100321.16;;;24.16;100.00
37368;BME280;23240;43.210;27.910;2023-07-20T03:37:23;100316.41;;;24.29;100.00
37368;BME280;23240;43.210;27.910;2023-07-20T03:39:48;100312.28;;;24.45;100.00
37368;BME280;23240;43.210;27.910;2023-07-20T03:42:14;100300.94;;;24.60;100.00
37368;BME280;23240;43.210;27.910;2023-07-20T03:44:39;100280.13;;;24.77;100.00
37368;BME280;23240;43.210;27.910;2023-07-20T03:47:04;100273.91;;;25.00;100.00
37368;BME280;23240;43.210;27.910;2023-07-20T03:49:30;100269.41;;;25.24;100.00
37368;BME280;23240;43.210;27.910;2023-07-20T03:51:55;100254.44;;;25.50;100.00
37368;BME280;23240;43.210;27.910;2023-07-20T03:54:20;100247.34;;;25.73;100.00
37368;BME280;23240;43.210;27.910;2023-07-20T03:56:46;100240.94;;;25.91;100.00
37368;BME280;23240;43.210;27.910;2023-07-20T03:59:11;100248.91;;;26.15;100.00
37368;BME280;23240;43.210;27.910;2023-07-20T04:01:36;100242.09;;;26.30;100.00
37368;BME280;23240;43.210;27.910;2023-07-20T04:04:06;100245.34;;;26.50;100.00
37368;BME280;23240;43.210;27.910;2023-07-20T04:06:32;100263.91;;;26.72;100.00
37368;BME280;23240;43.210;27.910;2023-07-20T04:08:57;100278.78;;;26.87;100.00
37368;BME280;23240;43.210;27.910;2023-07-20T04:11:23;100290.84;;;26.98;100.00
37368;BME280;23240;43.210;27.910;2023-07-20T04:13:48;100292.34;;;27.06;100.00
37368;BME280;23240;43.210;27.910;2023-07-20T04:16:14;100294.31;;;26.94;100.00
37368;BME280;23240;43.210;27.910;2023-07-20T04:18:39;100297.28;;;26.92;100.00
37368;BME280;23240;43.210;27.910;2023-07-20T04:21:05;100295.72;;;26.96;100.00
37368;BME280;23240;43.210;27.910;2023-07-20T04:23:30;100287.84;;;27.00;100.00
37368;BME280;23240;43.210;27.910;2023-07-20T04:25:56;100271.94;;;27.02;100.00
37368;BME280;23240;43.210;27.910;2023-07-20T04:28:22;100281.00;;;27.02;100.00
37368;BME280;23240;43.210;27.910;2023-07-20T04:30:48;100282.00;;;26.96;100.00
37368;BME280;23240;43.210;27.910;2023-07-20T04:33:14;100291.81;;;26.92;100.00
37368;BME280;23240;43.210;27.910;2023-07-20T04:35:49;100294.44;;;26.87;100.00
37368;BME280;23240;43.210;27.910;2023-07-20T04:38:15;100294.84;;;26.79;100.00
37368;BME280;23240;43.210;27.910;2023-07-20T04:40:45;100299.03;;;26.70;100.00
37368;BME280;23240;43.210;27.910;2023-07-20T04:43:10;100315.78;;;26.56;100.00
37368;BME280;23240;43.210;27.910;2023-07-20T04:45:36;100333.81;;;26.52;100.00
37368;BME280;23240;43.210;27.910;2023-07-20T04:48:01;100328.78;;;26.61;100.00
37368;BME280;23240;43.210;27.910;2023-07-20T04:50:27;100339.97;;;27.35;100.00
37368;BME280;23240;43.210;27.910;2023-07-20T04:52:52;100344.44;;;28.32;100.00
37368;BME280;23240;43.210;27.910;2023-07-20T04:55:18;100341.75;;;29.14;97.32
37368;BME280;23240;43.210;27.910;2023-07-20T04:57:43;100329.47;;;29.76;90.94
37368;BME280;23240;43.210;27.910;2023-07-20T05:00:09;100335.28;;;30.44;85.55
37368;BME280;23240;43.210;27.910;2023-07-20T05:02:38;100340.41;;;30.67;79.54
37368;BME280;23240;43.210;27.910;2023-07-20T05:05:03;100338.53;;;31.41;73.33
37368;BME280;23240;43.210;27.910;2023-07-20T05:07:31;100344.69;;;31.58;70.05
37368;BME280;23240;43.210;27.910;2023-07-20T05:09:56;100346.34;;;31.74;69.25
37368;BME280;23240;43.210;27.910;2023-07-20T05:12:21;100351.91;;;32.56;65.11
37368;BME280;23240;43.210;27.910;2023-07-20T05:14:46;100363.50;;;32.94;60.60
37368;BME280;23240;43.210;27.910;2023-07-20T05:17:12;100386.31;;;32.45;59.76
37368;BME280;23240;43.210;27.910;2023-07-20T05:19:37;100420.63;;;31.93;63.13
37368;BME280;23240;43.210;27.910;2023-07-20T05:22:02;100423.47;;;30.83;67.18
37368;BME280;23240;43.210;27.910;2023-07-20T05:24:29;100405.31;;;31.02;67.71
37368;BME280;23240;43.210;27.910;2023-07-20T05:26:54;100402.25;;;30.98;66.58
37368;BME280;23240;43.210;27.910;2023-07-20T05:29:19;100419.13;;;30.97;67.34
37368;BME280;23240;43.210;27.910;2023-07-20T05:31:45;100412.16;;;31.42;65.42
37368;BME280;23240;43.210;27.910;2023-07-20T05:34:10;100401.25;;;32.08;62.32
37368;BME280;23240;43.210;27.910;2023-07-20T05:36:35;100407.34;;;32.05;61.50
37368;BME280;23240;43.210;27.910;2023-07-20T05:39:01;100404.59;;;32.20;61.10
37368;BME280;23240;43.210;27.910;2023-07-20T05:41:27;100402.09;;;32.29;59.85
37368;BME280;23240;43.210;27.910;2023-07-20T05:43:52;100391.81;;;32.30;60.00
37368;BME280;23240;43.210;27.910;2023-07-20T05:46:17;100390.94;;;31.73;61.24
37368;BME280;23240;43.210;27.910;2023-07-20T05:48:43;100397.81;;;31.55;63.57
37368;BME280;23240;43.210;27.910;2023-07-20T05:51:08;100404.84;;;31.88;62.65
37368;BME280;23240;43.210;27.910;2023-07-20T05:53:34;100408.16;;;31.95;63.06
37368;BME280;23240;43.210;27.910;2023-07-20T05:56:00;100406.25;;;32.11;62.57
37368;BME280;23240;43.210;27.910;2023-07-20T05:58:25;100423.44;;;32.39;61.93
37368;BME280;23240;43.210;27.910;2023-07-20T06:00:53;100426.78;;;32.31;62.02
37368;BME280;23240;43.210;27.910;2023-07-20T06:03:18;100412.06;;;32.05;61.98
37368;BME280;23240;43.210;27.910;2023-07-20T06:05:46;100416.22;;;32.07;62.35
37368;BME280;23240;43.210;27.910;2023-07-20T06:08:12;100420.13;;;32.16;61.29
37368;BME280;23240;43.210;27.910;2023-07-20T06:10:37;100422.00;;;31.85;60.94
37368;BME280;23240;43.210;27.910;2023-07-20T06:13:02;100426.19;;;32.03;60.94
37368;BME280;23240;43.210;27.910;2023-07-20T06:15:28;100435.59;;;31.97;61.24
37368;BME280;23240;43.210;27.910;2023-07-20T06:17:54;100437.81;;;32.00;60.86
37368;BME280;23240;43.210;27.910;2023-07-20T06:20:21;100441.47;;;32.41;59.91
37368;BME280;23240;43.210;27.910;2023-07-20T06:22:46;100438.41;;;32.58;59.60
37368;BME280;23240;43.210;27.910;2023-07-20T06:25:12;100447.81;;;32.72;59.29
37368;BME280;23240;43.210;27.910;2023-07-20T06:27:37;100445.06;;;32.57;59.81
37368;BME280;23240;43.210;27.910;2023-07-20T06:30:02;100450.59;;;32.11;61.17
37368;BME280;23240;43.210;27.910;2023-07-20T06:32:28;100455.69;;;31.67;64.32
37368;BME280;23240;43.210;27.910;2023-07-20T06:34:53;100451.69;;;31.32;65.69
37368;BME280;23240;43.210;27.910;2023-07-20T06:37:18;100440.81;;;30.73;60.28
37368;BME280;23240;43.210;27.910;2023-07-20T06:39:45;100457.50;;;30.51;60.97
37368;BME280;23240;43.210;27.910;2023-07-20T06:42:10;100468.59;;;30.02;59.33
37368;BME280;23240;43.210;27.910;2023-07-20T06:44:36;100461.00;;;29.60;59.19
37368;BME280;23240;43.210;27.910;2023-07-20T06:47:01;100455.81;;;29.47;59.69
37368;BME280;23240;43.210;27.910;2023-07-20T06:49:27;100466.59;;;29.49;59.87
37368;BME280;23240;43.210;27.910;2023-07-20T06:51:52;100453.81;;;29.59;59.95
37368;BME280;23240;43.210;27.910;2023-07-20T06:54:17;100447.44;;;29.59;58.86
37368;BME280;23240;43.210;27.910;2023-07-20T06:56:43;100443.00;;;29.36;60.08
37368;BME280;23240;43.210;27.910;2023-07-20T06:59:08;100438.69;;;29.45;60.65
37368;BME280;23240;43.210;27.910;2023-07-20T07:01:33;100423.03;;;29.51;61.16
37368;BME280;23240;43.210;27.910;2023-07-20T07:03:59;100413.94;;;29.50;63.29
37368;BME280;23240;43.210;27.910;2023-07-20T07:06:24;100401.03;;;29.56;65.32
37368;BME280;23240;43.210;27.910;2023-07-20T07:08:49;100399.13;;;29.56;66.64
37368;BME280;23240;43.210;27.910;2023-07-20T07:11:15;100389.09;;;29.50;69.10
37368;BME280;23240;43.210;27.910;2023-07-20T07:13:40;100371.53;;;29.56;72.45
37368;BME280;23240;43.210;27.910;2023-07-20T07:16:05;100373.81;;;29.64;74.82
37368;BME280;23240;43.210;27.910;2023-07-20T07:18:31;100362.78;;;29.64;73.71
37368;BME280;23240;43.210;27.910;2023-07-20T07:20:56;100357.34;;;29.75;76.01
37368;BME280;23240;43.210;27.910;2023-07-20T07:23:22;100356.63;;;29.84;78.43
37368;BME280;23240;43.210;27.910;2023-07-20T07:25:47;100353.16;;;29.99;76.81
37368;BME280;23240;43.210;27.910;2023-07-20T07:28:12;100353.34;;;30.19;77.63
37368;BME280;23240;43.210;27.910;2023-07-20T07:30:38;100379.75;;;30.10;72.68
37368;BME280;23240;43.210;27.910;2023-07-20T07:33:03;100398.22;;;29.78;74.39
37368;BME280;23240;43.210;27.910;2023-07-20T07:35:29;100405.72;;;29.82;74.26
37368;BME280;23240;43.210;27.910;2023-07-20T07:37:54;100418.38;;;29.78;74.33
37368;BME280;23240;43.210;27.910;2023-07-20T07:40:20;100417.72;;;29.66;72.86
37368;BME280;23240;43.210;27.910;2023-07-20T07:42:45;100400.94;;;29.73;69.66
37368;BME280;23240;43.210;27.910;2023-07-20T07:45:10;100409.31;;;29.83;72.39
37368;BME280;23240;43.210;27.910;2023-07-20T07:47:36;100422.56;;;30.08;73.37
37368;BME280;23240;43.210;27.910;2023-07-20T07:50:01;100413.34;;;30.61;70.95
37368;BME280;23240;43.210;27.910;2023-07-20T07:52:27;100406.81;;;30.08;71.71
37368;BME280;23240;43.210;27.910;2023-07-20T07:54:52;100395.72;;;30.35;69.91
37368;BME280;23240;43.210;27.910;2023-07-20T07:57:17;100401.81;;;30.32;64.70
37368;BME280;23240;43.210;27.910;2023-07-20T07:59:42;100407.38;;;30.10;62.56
37368;BME280;23240;43.210;27.910;2023-07-20T08:02:08;100409.84;;;29.80;62.52
37368;BME280;23240;43.210;27.910;2023-07-20T08:04:33;100406.56;;;29.56;62.59
37368;BME280;23240;43.210;27.910;2023-07-20T08:06:58;100410.19;;;29.39;64.04
37368;BME280;23240;43.210;27.910;2023-07-20T08:09:24;100404.38;;;29.36;63.08
37368;BME280;23240;43.210;27.910;2023-07-20T08:11:49;100396.66;;;29.38;61.49
37368;BME280;23240;43.210;27.910;2023-07-20T08:14:15;100403.84;;;29.39;61.36
37368;BME280;23240;43.210;27.910;2023-07-20T08:16:40;100399.56;;;29.26;62.12
37368;BME280;23240;43.210;27.910;2023-07-20T08:19:05;100403.13;;;29.49;62.21
37368;BME280;23240;43.210;27.910;2023-07-20T08:21:31;100405.25;;;29.63;61.96
37368;BME280;23240;43.210;27.910;2023-07-20T08:23:56;100400.97;;;29.78;60.78
37368;BME280;23240;43.210;27.910;2023-07-20T08:26:22;100401.41;;;29.91;59.82
37368;BME280;23240;43.210;27.910;2023-07-20T08:28:48;100402.41;;;30.39;58.67
37368;BME280;23240;43.210;27.910;2023-07-20T08:31:13;100398.28;;;30.79;57.14
37368;BME280;23240;43.210;27.910;2023-07-20T08:33:39;100400.25;;;30.89;56.48
37368;BME280;23240;43.210;27.910;2023-07-20T08:36:04;100400.25;;;31.36;54.86
37368;BME280;23240;43.210;27.910;2023-07-20T08:38:30;100399.41;;;31.31;53.96
37368;BME280;23240;43.210;27.910;2023-07-20T08:40:56;100397.25;;;31.48;54.23
37368;BME280;23240;43.210;27.910;2023-07-20T08:43:22;100400.31;;;31.57;53.44
37368;BME280;23240;43.210;27.910;2023-07-20T08:45:49;100402.22;;;31.46;54.80
37368;BME280;23240;43.210;27.910;2023-07-20T08:48:16;100403.19;;;31.14;57.10
37368;BME280;23240;43.210;27.910;2023-07-20T08:50:43;100397.69;;;31.25;57.34
37368;BME280;23240;43.210;27.910;2023-07-20T08:53:09;100389.88;;;31.11;57.36
37368;BME280;23240;43.210;27.910;2023-07-20T08:55:35;100396.09;;;31.34;56.52
37368;BME280;23240;43.210;27.910;2023-07-20T08:58:01;100387.06;;;31.69;56.06
37368;BME280;23240;43.210;27.910;2023-07-20T09:00:28;100385.22;;;32.20;53.46
37368;BME280;23240;43.210;27.910;2023-07-20T09:02:54;100390.13;;;32.85;51.89
37368;BME280;23240;43.210;27.910;2023-07-20T09:05:20;100382.78;;;33.24;49.15
37368;BME280;23240;43.210;27.910;2023-07-20T09:07:46;100382.75;;;33.30;48.60
37368;BME280;23240;43.210;27.910;2023-07-20T09:10:11;100386.03;;;33.42;48.15
37368;BME280;23240;43.210;27.910;2023-07-20T09:12:41;100390.94;;;32.95;48.15
37368;BME280;23240;43.210;27.910;2023-07-20T09:15:07;100381.53;;;32.81;48.78
37368;BME280;23240;43.210;27.910;2023-07-20T09:17:33;100387.38;;;32.34;49.50
37368;BME280;23240;43.210;27.910;2023-07-20T09:19:58;100377.44;;;32.28;48.94
37368;BME280;23240;43.210;27.910;2023-07-20T09:22:30;100377.44;;;32.28;49.90
37368;BME280;23240;43.210;27.910;2023-07-20T09:24:55;100373.84;;;32.42;48.78
37368;BME280;23240;43.210;27.910;2023-07-20T09:27:21;100375.22;;;32.55;49.31
37368;BME280;23240;43.210;27.910;2023-07-20T09:29:49;100369.34;;;32.72;48.43
37368;BME280;23240;43.210;27.910;2023-07-20T09:32:17;100370.75;;;32.74;47.53
37368;BME280;23240;43.210;27.910;2023-07-20T09:34:43;100365.81;;;32.46;47.89
37368;BME280;23240;43.210;27.910;2023-07-20T09:37:08;100373.53;;;32.49;48.09
37368;BME280;23240;43.210;27.910;2023-07-20T09:39:41;100360.25;;;32.51;47.17
37368;BME280;23240;43.210;27.910;2023-07-20T09:42:07;100360.53;;;32.39;47.50
37368;BME280;23240;43.210;27.910;2023-07-20T09:44:33;100353.06;;;32.45;47.50
37368;BME280;23240;43.210;27.910;2023-07-20T09:46:59;100356.91;;;32.49;47.81
37368;BME280;23240;43.210;27.910;2023-07-20T09:49:24;100356.34;;;32.62;47.80
37368;BME280;23240;43.210;27.910;2023-07-20T09:51:49;100350.22;;;32.65;46.61
37368;BME280;23240;43.210;27.910;2023-07-20T09:54:15;100347.44;;;32.70;47.59
37368;BME280;23240;43.210;27.910;2023-07-20T09:56:41;100349.06;;;32.82;46.30
37368;BME280;23240;43.210;27.910;2023-07-20T09:59:07;100339.91;;;32.86;45.38
37368;BME280;23240;43.210;27.910;2023-07-20T10:01:32;100337.69;;;32.88;44.74
37368;BME280;23240;43.210;27.910;2023-07-20T10:04:00;100331.31;;;32.98;44.31
37368;BME280;23240;43.210;27.910;2023-07-20T10:06:28;100332.34;;;33.12;44.30
37368;BME280;23240;43.210;27.910;2023-07-20T10:08:55;100326.19;;;33.15;44.04
37368;BME280;23240;43.210;27.910;2023-07-20T10:11:24;100323.75;;;33.09;43.94
37368;BME280;23240;43.210;27.910;2023-07-20T10:13:53;100325.69;;;33.13;44.10
37368;BME280;23240;43.210;27.910;2023-07-20T10:16:25;100322.69;;;32.99;44.13
37368;BME280;23240;43.210;27.910;2023-07-20T10:18:54;100315.72;;;33.02;44.44
37368;BME280;23240;43.210;27.910;2023-07-20T10:21:24;100320.59;;;33.25;44.28
37368;BME280;23240;43.210;27.910;2023-07-20T10:23:50;100317.78;;;33.31;44.27
37368;BME280;23240;43.210;27.910;2023-07-20T10:26:15;100308.03;;;33.38;43.49
37368;BME280;23240;43.210;27.910;2023-07-20T10:28:40;100299.47;;;33.30;43.81
37368;BME280;23240;43.210;27.910;2023-07-20T10:31:07;100305.59;;;33.26;43.66
37368;BME280;23240;43.210;27.910;2023-07-20T10:33:33;100306.47;;;33.17;43.37
37368;BME280;23240;43.210;27.910;2023-07-20T10:36:02;100300.59;;;33.29;44.02
37368;BME280;23240;43.210;27.910;2023-07-20T10:39:02;100303.88;;;33.36;44.12
37368;BME280;23240;43.210;27.910;2023-07-20T10:43:46;100287.78;;;33.38;43.93
37368;BME280;23240;43.210;27.910;2023-07-20T10:46:12;100283.81;;;33.54;44.33
37368;BME280;23240;43.210;27.910;2023-07-20T10:51:22;100285.44;;;33.89;43.93
37368;BME280;23240;43.210;27.910;2023-07-20T10:53:48;100277.59;;;34.01;43.54
37368;BME280;23240;43.210;27.910;2023-07-20T10:56:15;100277.75;;;34.15;43.20
37368;BME280;23240;43.210;27.910;2023-07-20T10:58:40;100274.28;;;34.29;42.54
37368;BME280;23240;43.210;27.910;2023-07-20T11:01:09;100268.84;;;34.13;42.36
37368;BME280;23240;43.210;27.910;2023-07-20T11:03:38;100275.59;;;34.07;42.13
37368;BME280;23240;43.210;27.910;2023-07-20T11:08:48;100267.88;;;34.28;42.70
37368;BME280;23240;43.210;27.910;2023-07-20T11:11:26;100278.50;;;34.50;44.83
37368;BME280;23240;43.210;27.910;2023-07-20T11:13:59;100271.06;;;34.45;47.48
37368;BME280;23240;43.210;27.910;2023-07-20T11:16:34;100265.19;;;34.47;48.67
37368;BME280;23240;43.210;27.910;2023-07-20T11:19:00;100251.00;;;34.48;48.75
37368;BME280;23240;43.210;27.910;2023-07-20T11:21:25;100244.91;;;34.17;48.41
37368;BME280;23240;43.210;27.910;2023-07-20T11:23:53;100249.88;;;33.96;48.63
37368;BME280;23240;43.210;27.910;2023-07-20T11:26:20;100258.69;;;33.69;51.26
37368;BME280;23240;43.210;27.910;2023-07-20T11:28:51;100251.16;;;33.31;55.51
37368;BME280;23240;43.210;27.910;2023-07-20T11:31:17;100255.59;;;32.82;60.14
37368;BME280;23240;43.210;27.910;2023-07-20T11:33:42;100258.78;;;32.30;65.18
37368;BME280;23240;43.210;27.910;2023-07-20T11:36:08;100241.16;;;31.85;76.63
37368;BME280;23240;43.210;27.910;2023-07-20T11:38:34;100240.56;;;31.57;83.47
37368;BME280;23240;43.210;27.910;2023-07-20T11:40:59;100243.06;;;31.38;78.62
37368;BME280;23240;43.210;27.910;2023-07-20T11:43:24;100236.91;;;31.11;81.61
37368;BME280;23240;43.210;27.910;2023-07-20T11:45:51;100235.41;;;30.73;84.72
37368;BME280;23240;43.210;27.910;2023-07-20T11:48:16;100224.50;;;30.56;93.22
37368;BME280;23240;43.210;27.910;2023-07-20T11:50:41;100226.94;;;30.37;94.34
37368;BME280;23240;43.210;27.910;2023-07-20T11:53:07;100228.00;;;30.31;97.75
37368;BME280;23240;43.210;27.910;2023-07-20T11:55:32;100242.03;;;30.19;92.28
37368;BME280;23240;43.210;27.910;2023-07-20T11:58:04;100236.13;;;30.10;90.19
37368;BME280;23240;43.210;27.910;2023-07-20T12:00:30;100235.97;;;30.22;95.49
37368;BME280;23240;43.210;27.910;2023-07-20T12:02:56;100239.78;;;30.16;96.64
37368;BME280;23240;43.210;27.910;2023-07-20T12:05:24;100236.09;;;30.05;95.89
37368;BME280;23240;43.210;27.910;2023-07-20T12:07:51;100228.78;;;29.84;98.61
37368;BME280;23240;43.210;27.910;2023-07-20T12:10:22;100227.38;;;29.81;100.00
37368;BME280;23240;43.210;27.910;2023-07-20T12:12:48;100222.66;;;29.77;100.00
37368;BME280;23240;43.210;27.910;2023-07-20T12:15:20;100221.06;;;29.86;100.00
37368;BME280;23240;43.210;27.910;2023-07-20T12:17:46;100227.34;;;29.76;100.00
37368;BME280;23240;43.210;27.910;2023-07-20T12:20:23;100234.00;;;29.80;100.00
37368;BME280;23240;43.210;27.910;2023-07-20T12:22:49;100207.81;;;29.88;100.00
37368;BME280;23240;43.210;27.910;2023-07-20T12:25:14;100198.50;;;29.94;99.00
37368;BME280;23240;43.210;27.910;2023-07-20T12:27:40;100209.56;;;29.99;96.90
37368;BME280;23240;43.210;27.910;2023-07-20T12:30:07;100206.09;;;30.14;94.04
37368;BME280;23240;43.210;27.910;2023-07-20T12:32:33;100207.53;;;30.27;89.64
37368;BME280;23240;43.210;27.910;2023-07-20T12:34:58;100213.31;;;30.25;91.53
37368;BME280;23240;43.210;27.910;2023-07-20T12:37:25;100216.91;;;30.20;93.25
37368;BME280;23240;43.210;27.910;2023-07-20T12:39:51;100206.97;;;30.25;94.68
37368;BME280;23240;43.210;27.910;2023-07-20T12:42:16;100202.63;;;30.39;90.20
37368;BME280;23240;43.210;27.910;2023-07-20T12:44:42;100213.16;;;30.42;90.36
37368;BME280;23240;43.210;27.910;2023-07-20T12:47:07;100208.78;;;30.51;86.45
37368;BME280;23240;43.210;27.910;2023-07-20T12:49:32;100206.03;;;30.56;87.83